createdAt,value
2018-01-01T00:00:17.239Z,72.11
2018-01-01T00:01:17.215Z,72.46
2018-01-01T00:02:17.202Z,72.57
2018-01-01T00:03:17.325Z,72.41
2018-01-01T00:04:18.303Z,72.56
2018-01-01T00:05:18.592Z,72.66
2018-01-01T00:06:18.763Z,72.53
2018-01-01T00:07:18.935Z,72.9
2018-01-01T00:08:19.242Z,73.07
2018-01-01T00:09:19.135Z,73.09
2018-01-01T00:10:18.772Z,73.03
2018-01-01T00:11:19.340Z,73.43
2018-01-01T00:12:18.609Z,73.38
2018-01-01T00:13:18.608Z,73.78
2018-01-01T00:14:18.606Z,73.36
2018-01-01T00:15:18.959Z,73.61
2018-01-01T00:16:17.240Z,73.75
2018-01-01T00:17:19.402Z,73.93
2018-01-01T00:18:18.584Z,73.88
2018-01-01T00:19:18.690Z,73.57
2018-01-01T00:20:18.870Z,73.77
2018-01-01T00:21:18.972Z,74.15
2018-01-01T00:22:19.046Z,74.09
2018-01-01T00:23:19.259Z,73.87
2018-01-01T00:24:18.697Z,74.08
2018-01-01T00:25:18.608Z,74.07
2018-01-01T00:26:18.625Z,74.24
2018-01-01T00:27:18.526Z,74.22
2018-01-01T00:28:18.582Z,74.21
2018-01-01T00:29:18.829Z,73.99
2018-01-01T00:30:19.297Z,74.39
2018-01-01T00:31:19.121Z,74.25
2018-01-01T00:32:19.163Z,74.44
2018-01-01T00:33:19.149Z,74.38
2018-01-01T00:34:19.105Z,74.26
2018-01-01T00:35:19.021Z,74.54
2018-01-01T00:36:17.277Z,74.54
2018-01-01T00:37:19.073Z,74.66
2018-01-01T00:38:19.189Z,74.48
2018-01-01T00:39:17.261Z,74.81
2018-01-01T00:40:17.260Z,74.62
2018-01-01T00:41:18.714Z,74.98
2018-01-01T00:42:18.907Z,74.97
2018-01-01T00:43:19.141Z,74.82
2018-01-01T00:44:19.067Z,75.01
2018-01-01T00:45:17.263Z,74.93
2018-01-01T00:46:19.188Z,74.83
2018-01-01T00:47:17.352Z,74.81
2018-01-01T00:48:18.887Z,74.98
2018-01-01T00:49:18.309Z,75
2018-01-01T00:50:19.127Z,74.86
2018-01-01T00:51:19.245Z,75
2018-01-01T00:52:19.240Z,74.7
2018-01-01T00:53:17.369Z,74.87
2018-01-01T00:54:18.772Z,75.04
2018-01-01T00:55:18.945Z,75
2018-01-01T00:56:18.492Z,75.06
2018-01-01T00:57:17.333Z,75.16
2018-01-01T00:58:19.009Z,75.15
2018-01-01T00:59:19.001Z,75.04
2018-01-01T01:00:19.004Z,75.26
2018-01-01T01:01:18.909Z,75.17
2018-01-01T01:02:17.083Z,75.06
2018-01-01T01:03:17.181Z,74.93
2018-01-01T01:04:17.411Z,75.01
2018-01-01T01:05:18.573Z,75.06
2018-01-01T01:06:18.641Z,74.94
2018-01-01T01:07:18.827Z,74.91
2018-01-01T01:08:18.883Z,75.16
2018-01-01T01:09:19.238Z,75.22
2018-01-01T01:10:17.354Z,75.35
2018-01-01T01:11:17.321Z,75.26
2018-01-01T01:12:17.392Z,75.36
2018-01-01T01:13:18.476Z,75.43
2018-01-01T01:14:18.616Z,75.22
2018-01-01T01:15:18.678Z,75.45
2018-01-01T01:16:18.649Z,75.53
2018-01-01T01:17:18.691Z,75.45
2018-01-01T01:18:18.774Z,75.43
2018-01-01T01:19:18.671Z,75.28
2018-01-01T01:20:18.794Z,75.51
2018-01-01T01:21:18.854Z,75.47
2018-01-01T01:22:19.068Z,75.2
2018-01-01T01:23:19.434Z,75.43
2018-01-01T01:24:19.035Z,75.38
2018-01-01T01:25:17.034Z,75.28
2018-01-01T01:26:17.322Z,75.44
2018-01-01T01:27:18.861Z,75.33
2018-01-01T01:28:18.800Z,75.49
2018-01-01T01:29:18.892Z,75.55
2018-01-01T01:30:18.853Z,75.44
2018-01-01T01:31:18.773Z,75.7
2018-01-01T01:32:19.015Z,75.56
2018-01-01T01:33:18.872Z,75.65
2018-01-01T01:34:17.329Z,75.36
2018-01-01T01:35:18.753Z,75.35
2018-01-01T01:36:18.577Z,75.29
2018-01-01T01:37:17.325Z,75.43
2018-01-01T01:38:18.719Z,75.15
2018-01-01T01:39:18.453Z,75.25
2018-01-01T01:40:18.730Z,75.03
2018-01-01T01:41:18.738Z,75.46
2018-01-01T01:42:18.355Z,75.21
2018-01-01T01:43:17.343Z,75.05
2018-01-01T01:44:18.642Z,74.99
2018-01-01T01:45:18.831Z,75.1
2018-01-01T01:46:18.927Z,75.22
2018-01-01T01:47:19.017Z,75.1
2018-01-01T01:48:18.602Z,75.25
2018-01-01T01:49:18.816Z,75.36
2018-01-01T01:50:19.194Z,75.26
2018-01-01T01:51:17.141Z,75.33
2018-01-01T01:52:18.953Z,75.27
2018-01-01T01:53:18.872Z,75.3
2018-01-01T01:54:19.115Z,75.41
2018-01-01T01:55:17.155Z,75.26
2018-01-01T01:56:17.297Z,75.43
2018-01-01T01:57:19.052Z,75.73
2018-01-01T01:58:19.200Z,75.3
2018-01-01T01:59:17.250Z,75.29
2018-01-01T02:00:17.385Z,75.26
2018-01-01T02:01:18.860Z,75.26
2018-01-01T02:02:18.897Z,75.61
2018-01-01T02:03:18.856Z,75.39
2018-01-01T02:04:18.361Z,75.19
2018-01-01T02:05:17.425Z,75.36
2018-01-01T02:06:17.340Z,75.44
2018-01-01T02:07:17.259Z,75.59
2018-01-01T02:08:17.280Z,75.66
2018-01-01T02:09:17.289Z,75.48
2018-01-01T02:10:17.033Z,75.81
2018-01-01T02:11:17.121Z,75.86
2018-01-01T02:12:16.733Z,75.59
2018-01-01T02:13:16.771Z,75.58
2018-01-01T02:14:17.060Z,75.63
2018-01-01T02:15:18.724Z,75.74
2018-01-01T02:16:16.834Z,75.65
2018-01-01T02:17:17.478Z,75.75
2018-01-01T02:18:16.999Z,76.2
2018-01-01T02:19:17.086Z,75.75
2018-01-01T02:20:18.743Z,75.9
2018-01-01T02:21:17.015Z,75.7
2018-01-01T02:22:17.035Z,75.67
2018-01-01T02:23:17.334Z,76.08
2018-01-01T02:24:17.397Z,76.03
2018-01-01T02:25:18.654Z,75.82
2018-01-01T02:26:18.751Z,76.2
2018-01-01T02:27:18.623Z,76.18
2018-01-01T02:28:18.693Z,76.22
2018-01-01T02:29:18.839Z,76.18
2018-01-01T02:30:16.921Z,76.11
2018-01-01T02:31:17.089Z,75.97
2018-01-01T02:32:17.136Z,76.35
2018-01-01T02:33:17.232Z,76.21
2018-01-01T02:34:17.435Z,76.41
2018-01-01T02:35:17.486Z,76.27
2018-01-01T02:36:17.156Z,76.36
2018-01-01T02:37:16.737Z,76.32
2018-01-01T02:38:16.938Z,76.32
2018-01-01T02:39:16.510Z,76.27
2018-01-01T02:40:17.248Z,76.5
2018-01-01T02:41:16.564Z,76.29
2018-01-01T02:42:17.183Z,76.48
2018-01-01T02:43:17.273Z,76.77
2018-01-01T02:44:16.698Z,76.28
2018-01-01T02:45:16.895Z,76.57
2018-01-01T02:46:16.709Z,76.47
2018-01-01T02:47:16.903Z,76.62
2018-01-01T02:48:16.696Z,76.59
2018-01-01T02:49:17.011Z,76.62
2018-01-01T02:50:17.289Z,76.76
2018-01-01T02:51:16.594Z,76.57
2018-01-01T02:52:16.747Z,76.54
2018-01-01T02:53:16.881Z,77
2018-01-01T02:54:17.275Z,76.79
2018-01-01T02:55:16.552Z,76.71
2018-01-01T02:56:17.246Z,76.7
2018-01-01T02:57:16.404Z,76.95
2018-01-01T02:58:16.587Z,77.08
2018-01-01T02:59:16.439Z,76.9
2018-01-01T03:00:16.465Z,76.31
2018-01-01T03:01:16.538Z,76.58
2018-01-01T03:02:16.968Z,77.24
2018-01-01T03:03:16.430Z,77.34
2018-01-01T03:04:16.676Z,77.68
2018-01-01T03:05:17.035Z,78.26
2018-01-01T03:06:16.998Z,78.6
2018-01-01T03:07:16.994Z,78.66
2018-01-01T03:08:17.117Z,79.07
2018-01-01T03:09:17.392Z,79.14
2018-01-01T03:10:17.526Z,79.2
2018-01-01T03:11:17.258Z,79.25
2018-01-01T03:12:17.362Z,79.09
2018-01-01T03:13:17.179Z,79.11
2018-01-01T03:14:17.444Z,79.06
2018-01-01T03:15:18.695Z,78.97
2018-01-01T03:16:18.832Z,79.17
2018-01-01T03:17:18.846Z,78.87
2018-01-01T03:18:19.067Z,78.8
2018-01-01T03:19:17.137Z,78.64
2018-01-01T03:20:17.465Z,78.38
2018-01-01T03:21:18.894Z,78.5
2018-01-01T03:22:18.733Z,78.47
2018-01-01T03:23:18.838Z,78.18
2018-01-01T03:24:18.743Z,78.59
2018-01-01T03:25:18.844Z,78.49
2018-01-01T03:26:18.911Z,78.86
2018-01-01T03:27:18.947Z,78.71
2018-01-01T03:28:18.955Z,78.87
2018-01-01T03:29:18.968Z,78.64
2018-01-01T03:30:18.694Z,78.75
2018-01-01T03:31:18.681Z,78.68
2018-01-01T03:32:17.536Z,78.69
2018-01-01T03:33:17.186Z,78.69
2018-01-01T03:34:19.003Z,77.83
2018-01-01T03:35:17.083Z,77.95
2018-01-01T03:36:17.195Z,77.5
2018-01-01T03:37:18.960Z,77.32
2018-01-01T03:38:18.855Z,76.92
2018-01-01T03:39:18.759Z,76.42
2018-01-01T03:40:18.522Z,76.1
2018-01-01T03:41:17.364Z,76.37
2018-01-01T03:42:17.585Z,75.91
2018-01-01T03:43:17.294Z,75.75
2018-01-01T03:44:17.412Z,75.73
2018-01-01T03:45:18.705Z,75.16
2018-01-01T03:46:19.027Z,75.15
2018-01-01T03:47:18.849Z,75.31
2018-01-01T03:48:18.862Z,74.57
2018-01-01T03:49:19.207Z,74.71
2018-01-01T03:50:19.201Z,74.96
2018-01-01T03:51:19.049Z,74.99
2018-01-01T03:52:18.423Z,74.76
2018-01-01T03:53:17.308Z,74.42
2018-01-01T03:54:17.374Z,74.32
2018-01-01T03:55:17.600Z,74.4
2018-01-01T03:56:18.645Z,74.34
2018-01-01T03:57:18.603Z,74.69
2018-01-01T03:58:18.824Z,74.41
2018-01-01T03:59:18.672Z,74.49
2018-01-01T04:00:18.882Z,74.78
2018-01-01T04:01:19.039Z,74.14
2018-01-01T04:02:18.874Z,74.35
2018-01-01T04:03:18.717Z,74.32
2018-01-01T04:04:17.544Z,74.86
2018-01-01T04:05:18.669Z,74.8
2018-01-01T04:06:18.691Z,74.86
2018-01-01T04:07:16.726Z,74.53
2018-01-01T04:08:16.914Z,75.01
2018-01-01T04:09:17.267Z,75.01
2018-01-01T04:10:16.965Z,75.39
2018-01-01T04:11:16.997Z,75.18
2018-01-01T04:12:17.536Z,75.17
2018-01-01T04:13:16.825Z,75.33
2018-01-01T04:14:16.923Z,75.29
2018-01-01T04:15:17.565Z,75.47
2018-01-01T04:16:18.560Z,75.83
2018-01-01T04:17:16.877Z,75.59
2018-01-01T04:18:17.385Z,75.82
2018-01-01T04:19:16.653Z,76.08
2018-01-01T04:20:17.033Z,75.74
2018-01-01T04:21:17.258Z,76.17
2018-01-01T04:22:17.035Z,76.07
2018-01-01T04:23:17.223Z,75.69
2018-01-01T04:24:17.124Z,75.57
2018-01-01T04:25:17.555Z,75.64
2018-01-01T04:26:16.909Z,75.92
2018-01-01T04:27:17.530Z,75.85
2018-01-01T04:28:17.049Z,75.91
2018-01-01T04:29:17.567Z,76.14
2018-01-01T04:30:17.472Z,76.2
2018-01-01T04:31:17.003Z,76.06
2018-01-01T04:32:17.365Z,75.92
2018-01-01T04:33:17.567Z,75.81
2018-01-01T04:34:17.547Z,75.87
2018-01-01T04:35:16.686Z,75.45
2018-01-01T04:36:17.185Z,75.01
2018-01-01T04:37:16.549Z,75.35
2018-01-01T04:38:17.585Z,75.22
2018-01-01T04:39:17.329Z,75.37
2018-01-01T04:40:17.344Z,75.15
2018-01-01T04:41:17.442Z,75.22
2018-01-01T04:42:16.907Z,75.29
2018-01-01T04:43:17.427Z,75.55
2018-01-01T04:44:16.650Z,75.59
2018-01-01T04:45:17.019Z,75.55
2018-01-01T04:46:17.514Z,75.66
2018-01-01T04:47:16.761Z,75.78
2018-01-01T04:48:16.972Z,76.29
2018-01-01T04:49:17.158Z,76.54
2018-01-01T04:50:17.259Z,76.41
2018-01-01T04:51:17.043Z,76.46
2018-01-01T04:52:17.254Z,76.7
2018-01-01T04:53:16.781Z,76.67
2018-01-01T04:54:17.106Z,76.58
2018-01-01T04:55:17.337Z,76.63
2018-01-01T04:56:17.441Z,76.65
2018-01-01T04:57:16.863Z,76.7
2018-01-01T04:58:17.072Z,76.79
2018-01-01T04:59:17.349Z,76.93
2018-01-01T05:00:17.454Z,76.82
2018-01-01T05:01:16.692Z,76.77
2018-01-01T05:02:16.886Z,76.95
2018-01-01T05:03:17.128Z,77
2018-01-01T05:04:17.237Z,77.07
2018-01-01T05:05:16.938Z,77.11
2018-01-01T05:06:17.161Z,77.21
2018-01-01T05:07:17.491Z,77.27
2018-01-01T05:08:16.820Z,77.28
2018-01-01T05:09:17.046Z,77.39
2018-01-01T05:10:16.793Z,77.57
2018-01-01T05:11:16.945Z,77.78
2018-01-01T05:12:16.489Z,77.99
2018-01-01T05:13:16.770Z,77.92
2018-01-01T05:14:16.658Z,78.12
2018-01-01T05:15:16.725Z,78.8
2018-01-01T05:16:17.269Z,79.33
2018-01-01T05:17:17.459Z,79.37
2018-01-01T05:18:16.805Z,79.51
2018-01-01T05:19:17.038Z,79.78
2018-01-01T05:20:17.317Z,79.98
2018-01-01T05:21:17.470Z,79.86
2018-01-01T05:22:16.814Z,80.44
2018-01-01T05:23:17.430Z,80.1
2018-01-01T05:24:16.738Z,80.53
2018-01-01T05:25:16.451Z,80.15
2018-01-01T05:26:16.723Z,80.1
2018-01-01T05:27:16.969Z,80.1
2018-01-01T05:28:16.711Z,79.91
2018-01-01T05:29:17.398Z,80.36
2018-01-01T05:30:17.464Z,80.65
2018-01-01T05:31:16.693Z,80.29
2018-01-01T05:32:16.771Z,79.93
2018-01-01T05:33:17.462Z,79.91
2018-01-01T05:34:16.730Z,79.45
2018-01-01T05:35:16.568Z,80.01
2018-01-01T05:36:16.753Z,79.87
2018-01-01T05:37:16.921Z,79.62
2018-01-01T05:38:17.323Z,79.32
2018-01-01T05:39:17.517Z,79.18
2018-01-01T05:40:19.004Z,79.06
2018-01-01T05:41:19.110Z,78.47
2018-01-01T05:42:17.421Z,78.26
2018-01-01T05:43:17.542Z,78.31
2018-01-01T05:44:19.214Z,78.07
2018-01-01T05:45:18.760Z,77.79
2018-01-01T05:46:18.882Z,77.64
2018-01-01T05:47:18.962Z,77.53
2018-01-01T05:48:18.560Z,77.88
2018-01-01T05:49:18.707Z,77.17
2018-01-01T05:50:19.434Z,76.8
2018-01-01T05:51:18.839Z,76.94
2018-01-01T05:52:19.240Z,76.7
2018-01-01T05:53:17.404Z,76.56
2018-01-01T05:54:18.731Z,76.86
2018-01-01T05:55:18.962Z,76.92
2018-01-01T05:56:19.475Z,76.67
2018-01-01T05:57:18.930Z,76.19
2018-01-01T05:58:19.414Z,76.49
2018-01-01T05:59:18.770Z,77
2018-01-01T06:00:18.911Z,76.5
2018-01-01T06:01:19.109Z,76.93
2018-01-01T06:02:19.272Z,76.39
2018-01-01T06:03:17.478Z,76.41
2018-01-01T06:04:17.645Z,76.33
2018-01-01T06:05:17.462Z,76.09
2018-01-01T06:06:18.775Z,76.35
2018-01-01T06:07:19.144Z,76.99
2018-01-01T06:08:16.437Z,76.52
2018-01-01T06:09:17.093Z,76.42
2018-01-01T06:10:17.309Z,76.59
2018-01-01T06:11:16.702Z,76.71
2018-01-01T06:12:17.000Z,77.07
2018-01-01T06:13:16.806Z,77.15
2018-01-01T06:14:17.220Z,76.72
2018-01-01T06:15:16.599Z,76.91
2018-01-01T06:16:16.921Z,76.82
2018-01-01T06:17:16.882Z,76.6
2018-01-01T06:18:16.968Z,77.42
2018-01-01T06:19:16.711Z,76.82
2018-01-01T06:20:16.571Z,76.9
2018-01-01T06:21:16.906Z,76.94
2018-01-01T06:22:17.232Z,76.68
2018-01-01T06:23:16.465Z,76.7
2018-01-01T06:24:16.614Z,76.73
2018-01-01T06:25:16.663Z,76.06
2018-01-01T06:26:16.580Z,76.04
2018-01-01T06:27:16.974Z,75.63
2018-01-01T06:28:17.401Z,75.7
2018-01-01T06:29:16.601Z,75.95
2018-01-01T06:30:16.634Z,76.11
2018-01-01T06:31:16.514Z,75.97
2018-01-01T06:32:16.725Z,75.96
2018-01-01T06:33:16.506Z,76.24
2018-01-01T06:34:17.177Z,76.24
2018-01-01T06:35:16.955Z,76.32
2018-01-01T06:36:16.687Z,76.77
2018-01-01T06:37:16.953Z,76.77
2018-01-01T06:38:17.013Z,77.04
2018-01-01T06:40:26.075Z,77.16
2018-01-01T06:41:17.065Z,77
2018-01-01T06:42:17.120Z,77
2018-01-01T06:43:17.070Z,76.96
2018-01-01T06:44:18.906Z,77.22
2018-01-01T06:45:18.689Z,77.23
2018-01-01T06:46:18.458Z,77.12
2018-01-01T06:47:18.437Z,77.43
2018-01-01T06:48:18.530Z,77.28
2018-01-01T06:49:18.983Z,77.3
2018-01-01T06:50:18.847Z,77.19
2018-01-01T06:51:18.776Z,77.26
2018-01-01T06:52:18.910Z,77.49
2018-01-01T06:53:19.015Z,77.37
2018-01-01T06:54:17.062Z,77.59
2018-01-01T06:55:16.979Z,77.61
2018-01-01T06:56:18.960Z,77.83
2018-01-01T06:57:19.080Z,78.03
2018-01-01T06:58:17.101Z,77.68
2018-01-01T06:59:16.977Z,77.78
2018-01-01T07:00:17.226Z,77.74
2018-01-01T07:01:18.465Z,77.92
2018-01-01T07:02:18.452Z,78.14
2018-01-01T07:03:18.371Z,77.8
2018-01-01T07:04:18.339Z,77.94
2018-01-01T07:05:17.074Z,78.03
2018-01-01T07:06:17.267Z,78.14
2018-01-01T07:07:18.902Z,78.15
2018-01-01T07:08:18.487Z,78.04
2018-01-01T07:09:18.569Z,77.87
2018-01-01T07:10:18.591Z,77.97
2018-01-01T07:11:18.552Z,78.09
2018-01-01T07:12:18.529Z,78
2018-01-01T07:13:18.594Z,78.12
2018-01-01T07:14:18.704Z,78.05
2018-01-01T07:15:18.615Z,78.06
2018-01-01T07:16:19.098Z,78.27
2018-01-01T07:17:16.954Z,78.04
2018-01-01T07:18:16.863Z,77.96
2018-01-01T07:19:18.681Z,78.18
2018-01-01T07:22:21.796Z,78.55
2018-01-01T07:23:16.859Z,78.62
2018-01-01T07:24:19.148Z,78.4
2018-01-01T07:25:17.117Z,78.41
2018-01-01T07:27:35.291Z,78.11
2018-01-01T07:28:17.242Z,78.08
2018-01-01T07:29:18.646Z,77.97
2018-01-01T07:30:18.704Z,77.85
2018-01-01T07:31:18.509Z,77.93
2018-01-01T07:32:18.208Z,77.83
2018-01-01T07:33:17.249Z,77.86
2018-01-01T07:34:18.275Z,77.96
2018-01-01T07:35:17.234Z,77.83
2018-01-01T07:36:17.032Z,77.84
2018-01-01T07:37:17.167Z,78.03
2018-01-01T07:38:17.139Z,78.16
2018-01-01T07:39:17.045Z,77.97
2018-01-01T07:40:16.865Z,77.98
2018-01-01T07:41:18.875Z,77.91
2018-01-01T07:42:18.742Z,78.13
2018-01-01T07:43:18.316Z,77.81
2018-01-01T07:44:17.287Z,77.62
2018-01-01T07:45:18.704Z,77.85
2018-01-01T07:46:19.035Z,78.13
2018-01-01T07:47:17.194Z,77.98
2018-01-01T07:48:17.079Z,77.67
2018-01-01T07:49:17.024Z,77.62
2018-01-01T07:50:18.235Z,77.56
2018-01-01T07:51:17.117Z,77.73
2018-01-01T07:52:16.932Z,77.75
2018-01-01T07:53:18.539Z,77.65
2018-01-01T07:54:17.211Z,77.92
2018-01-01T07:55:17.217Z,77.8
2018-01-01T07:56:18.728Z,77.61
2018-01-01T07:57:18.484Z,77.61
2018-01-01T07:58:17.221Z,77.44
2018-01-01T07:59:18.406Z,77.23
2018-01-01T08:00:18.559Z,77.72
2018-01-01T08:01:18.197Z,77.22
2018-01-01T08:02:17.192Z,77.24
2018-01-01T08:03:17.106Z,77.46
2018-01-01T08:04:17.165Z,77.2
2018-01-01T08:05:17.274Z,77.24
2018-01-01T08:06:18.404Z,77.26
2018-01-01T08:07:18.483Z,77.24
2018-01-01T08:08:18.512Z,77.09
2018-01-01T08:09:16.583Z,77.16
2018-01-01T08:10:16.759Z,77.19
2018-01-01T08:11:16.929Z,77.04
2018-01-01T08:12:16.927Z,76.79
2018-01-01T08:13:16.963Z,76.92
2018-01-01T08:14:16.996Z,76.77
2018-01-01T08:15:16.971Z,76.85
2018-01-01T08:16:16.751Z,76.63
2018-01-01T08:17:18.564Z,76.8
2018-01-01T08:18:18.640Z,76.48
2018-01-01T08:19:18.517Z,76.84
2018-01-01T08:20:18.572Z,76.81
2018-01-01T08:21:16.698Z,76.84
2018-01-01T08:22:16.848Z,76.94
2018-01-01T08:23:17.095Z,77.02
2018-01-01T08:24:17.081Z,76.97
2018-01-01T08:25:17.061Z,76.99
2018-01-01T08:26:17.263Z,76.86
2018-01-01T08:27:17.257Z,77.09
2018-01-01T08:28:16.925Z,77.07
2018-01-01T08:29:16.727Z,76.94
2018-01-01T08:30:16.732Z,76.91
2018-01-01T08:31:16.933Z,76.84
2018-01-01T08:32:17.104Z,77.04
2018-01-01T08:33:17.115Z,76.77
2018-01-01T08:34:17.070Z,77.05
2018-01-01T08:35:17.142Z,76.96
2018-01-01T08:36:17.097Z,77.16
2018-01-01T08:37:17.049Z,77.23
2018-01-01T08:38:16.821Z,77.13
2018-01-01T08:39:17.013Z,77.06
2018-01-01T08:40:18.841Z,77.13
2018-01-01T08:41:18.703Z,77.43
2018-01-01T08:42:18.613Z,77.44
2018-01-01T08:43:18.577Z,77.29
2018-01-01T08:44:18.517Z,77.56
2018-01-01T08:45:18.695Z,77.54
2018-01-01T08:46:18.246Z,77.31
2018-01-01T08:49:20.687Z,77.2
2018-01-01T08:50:17.905Z,76.84
2018-01-01T08:51:17.792Z,77.1
2018-01-01T08:52:17.750Z,77.17
2018-01-01T08:53:17.623Z,76.57
2018-01-01T08:54:17.637Z,76.88
2018-01-01T08:55:17.590Z,76.54
2018-01-01T08:57:17.244Z,76.57
2018-01-01T08:58:17.391Z,76.58
2018-01-01T08:59:17.513Z,76.43
2018-01-01T09:00:17.722Z,76.03
2018-01-01T09:01:17.190Z,76.33
2018-01-01T09:02:17.586Z,75.92
2018-01-01T09:03:17.750Z,75.74
2018-01-01T09:04:17.872Z,75.46
2018-01-01T09:05:17.215Z,75.77
2018-01-01T09:06:17.519Z,75.88
2018-01-01T09:07:18.012Z,75.16
2018-01-01T09:08:17.335Z,75.15
2018-01-01T09:09:17.836Z,74.88
2018-01-01T09:10:17.179Z,75.01
2018-01-01T09:11:17.715Z,74.9
2018-01-01T09:12:17.215Z,75.37
2018-01-01T09:13:17.584Z,74.6
2018-01-01T09:14:17.224Z,75.15
2018-01-01T09:15:17.398Z,75.18
2018-01-01T09:16:16.807Z,74.6
2018-01-01T09:17:17.006Z,74.89
2018-01-01T09:18:17.358Z,74.37
2018-01-01T09:19:17.808Z,74.47
2018-01-01T09:20:17.054Z,74.31
2018-01-01T09:21:17.178Z,74.62
2018-01-01T09:22:16.988Z,74.31
2018-01-01T09:23:17.405Z,74.4
2018-01-01T09:24:17.841Z,74.05
2018-01-01T09:25:17.218Z,74.51
2018-01-01T09:26:17.619Z,74.5
2018-01-01T09:27:17.674Z,74.49
2018-01-01T09:28:16.994Z,74.18
2018-01-01T09:29:17.146Z,73.77
2018-01-01T09:30:17.395Z,73.97
2018-01-01T09:31:17.337Z,74.07
2018-01-01T09:32:17.586Z,73.56
2018-01-01T09:33:17.746Z,73.62
2018-01-01T09:34:17.010Z,73.72
2018-01-01T09:35:17.244Z,73.88
2018-01-01T09:36:17.467Z,73.64
2018-01-01T09:37:16.981Z,73.28
2018-01-01T09:38:17.280Z,73.75
2018-01-01T09:39:17.626Z,74.1
2018-01-01T09:40:17.807Z,74.05
2018-01-01T09:41:16.968Z,74.07
2018-01-01T09:42:17.236Z,73.73
2018-01-01T09:43:17.618Z,73.61
2018-01-01T09:44:17.659Z,73.95
2018-01-01T09:45:16.865Z,73.77
2018-01-01T09:46:17.128Z,73.41
2018-01-01T09:47:17.396Z,73.54
2018-01-01T09:48:17.545Z,73.87
2018-01-01T09:49:16.851Z,73.51
2018-01-01T09:50:17.726Z,73.8
2018-01-01T09:51:17.430Z,73.8
2018-01-01T09:52:17.798Z,73.66
2018-01-01T09:53:17.353Z,73.81
2018-01-01T09:54:17.438Z,73.38
2018-01-01T09:55:16.963Z,72.38
2018-01-01T09:56:17.282Z,72.11
2018-01-01T09:57:17.565Z,72.37
2018-01-01T09:58:17.882Z,72.18
2018-01-01T09:59:17.205Z,71.82
2018-01-01T10:00:17.436Z,71.97
2018-01-01T10:01:17.838Z,71.92
2018-01-01T10:02:17.371Z,72.07
2018-01-01T10:03:17.628Z,71.93
2018-01-01T10:04:16.900Z,71.25
2018-01-01T10:05:17.916Z,71.55
2018-01-01T10:06:17.220Z,71.71
2018-01-01T10:07:17.623Z,71.01
2018-01-01T10:08:17.350Z,72.1
2018-01-01T10:09:17.625Z,72.14
2018-01-01T10:10:17.836Z,71.1
2018-01-01T10:11:18.256Z,71.5
2018-01-01T10:12:17.559Z,71.44
2018-01-01T10:13:17.757Z,70.27
2018-01-01T10:14:17.104Z,71.09
2018-01-01T10:15:17.284Z,70.85
2018-01-01T10:16:17.745Z,70.42
2018-01-01T10:17:17.271Z,71.75
2018-01-01T10:18:17.573Z,70.94
2018-01-01T10:19:17.854Z,70.87
2018-01-01T10:20:17.166Z,71.2
2018-01-01T10:21:17.578Z,70.77
2018-01-01T10:22:17.793Z,71.07
2018-01-01T10:23:17.924Z,70.54
2018-01-01T10:24:17.228Z,70.15
2018-01-01T10:25:17.668Z,69.63
2018-01-01T10:26:17.474Z,70.11
2018-01-01T10:27:17.862Z,70.68
2018-01-01T10:28:17.408Z,70.41
2018-01-01T10:29:19.027Z,69.97
2018-01-01T10:30:18.311Z,69.97
2018-01-01T10:31:17.489Z,70.53
2018-01-01T10:32:18.061Z,70.54
2018-01-01T10:33:17.506Z,69.82
2018-01-01T10:34:17.658Z,69.29
2018-01-01T10:35:17.367Z,69.8
2018-01-01T10:36:18.075Z,69.17
2018-01-01T10:37:17.800Z,69.4
2018-01-01T10:38:24.029Z,69.77
2018-01-01T10:39:17.892Z,69.8
2018-01-01T10:40:17.542Z,68.31
2018-01-01T10:41:18.327Z,68.37
2018-01-01T10:42:17.604Z,68.62
2018-01-01T10:43:17.270Z,68.63
2018-01-01T10:44:17.873Z,69.08
2018-01-01T10:45:17.025Z,69.28
2018-01-01T10:46:17.192Z,68.71
2018-01-01T10:47:17.139Z,69.26
2018-01-01T10:48:17.723Z,69.77
2018-01-01T10:49:17.603Z,69.24
2018-01-01T10:50:17.159Z,70.05
2018-01-01T10:51:17.264Z,69.36
2018-01-01T10:52:17.669Z,67.96
2018-01-01T10:53:18.015Z,68.02
2018-01-01T10:54:17.383Z,68.56
2018-01-01T10:55:17.517Z,68.67
2018-01-01T10:56:17.680Z,69.06
2018-01-01T10:57:17.986Z,68.11
2018-01-01T10:59:20.454Z,69.11
2018-01-01T11:00:17.460Z,69.08
2018-01-01T11:01:17.424Z,68.67
2018-01-01T11:02:17.439Z,69.05
2018-01-01T11:03:18.619Z,68.81
2018-01-01T11:04:17.940Z,68.75
2018-01-01T11:05:17.238Z,69.9
2018-01-01T11:06:17.170Z,70.13
2018-01-01T11:07:17.292Z,69.24
2018-01-01T11:08:17.487Z,69.76
2018-01-01T11:09:17.656Z,69.96
2018-01-01T11:10:17.662Z,69.37
2018-01-01T11:11:17.629Z,69.82
2018-01-01T11:12:16.729Z,69.46
2018-01-01T11:13:17.614Z,69.34
2018-01-01T11:16:24.467Z,69.61
2018-01-01T11:17:24.371Z,69.53
2018-01-01T11:18:24.347Z,68.94
2018-01-01T11:19:25.252Z,68.73
2018-01-01T11:20:24.597Z,67.85
2018-01-01T11:21:24.585Z,68.08
2018-01-01T11:22:24.653Z,69.2
2018-01-01T11:23:24.655Z,69.04
2018-01-01T11:24:24.741Z,69.43
2018-01-01T11:25:24.862Z,68.95
2018-01-01T11:26:25.073Z,69.46
2018-01-01T11:27:25.212Z,69.12
2018-01-01T11:28:24.350Z,67.95
2018-01-01T11:29:24.400Z,68.58
2018-01-01T11:30:24.357Z,68.77
2018-01-01T11:31:24.656Z,68.62
2018-01-01T11:32:24.887Z,68.31
2018-01-01T11:33:24.893Z,68.31
2018-01-01T11:34:25.184Z,67.75
2018-01-01T11:35:25.191Z,68.71
2018-01-01T11:36:24.526Z,68.94
2018-01-01T11:37:24.628Z,68.82
2018-01-01T11:38:24.634Z,68.84
2018-01-01T11:39:24.489Z,67.76
2018-01-01T11:40:24.663Z,67.67
2018-01-01T11:41:24.816Z,67.29
2018-01-01T11:42:24.866Z,68.48
2018-01-01T11:43:24.859Z,68.01
2018-01-01T11:44:24.954Z,66.67
2018-01-01T11:45:25.056Z,68.12
2018-01-01T11:46:24.524Z,68.31
2018-01-01T11:47:24.546Z,67.38
2018-01-01T11:48:24.726Z,67.92
2018-01-01T11:49:24.733Z,67.21
2018-01-01T11:50:24.845Z,67.54
2018-01-01T11:51:24.841Z,66.96
2018-01-01T11:52:25.027Z,67.67
2018-01-01T11:53:24.961Z,67.69
2018-01-01T11:54:25.119Z,66.69
2018-01-01T11:55:25.192Z,67.23
2018-01-01T11:56:25.219Z,67.25
2018-01-01T11:57:25.318Z,66.65
2018-01-01T11:58:25.438Z,66.5
2018-01-01T11:59:25.558Z,65.71
2018-01-01T12:00:24.560Z,65.77
2018-01-01T12:01:25.409Z,66.25
2018-01-01T12:02:25.516Z,66.88
2018-01-01T12:03:25.433Z,67.46
2018-01-01T12:04:25.384Z,66.55
2018-01-01T12:05:25.978Z,66.11
2018-01-01T12:06:25.186Z,66.24
2018-01-01T12:07:25.303Z,65.78
2018-01-01T12:08:25.231Z,65.74
2018-01-01T12:09:25.303Z,64.83
2018-01-01T12:10:25.381Z,64.7
2018-01-01T12:11:25.786Z,64.28
2018-01-01T12:12:25.012Z,65.28
2018-01-01T12:13:24.996Z,65.69
2018-01-01T12:14:24.981Z,65.46
2018-01-01T12:15:24.893Z,65.1
2018-01-01T12:16:24.986Z,65.1
2018-01-01T12:17:25.929Z,64.81
2018-01-01T12:18:24.927Z,65.22
2018-01-01T12:19:25.874Z,64.67
2018-01-01T12:20:25.908Z,64.32
2018-01-01T12:21:25.891Z,65.4
2018-01-01T12:22:25.897Z,65.3
2018-01-01T12:23:25.936Z,65.75
2018-01-01T12:24:25.013Z,65.01
2018-01-01T12:25:25.850Z,65.58
2018-01-01T12:26:25.931Z,64.33
2018-01-01T12:27:25.112Z,64.72
2018-01-01T12:28:24.983Z,64.94
2018-01-01T12:29:24.980Z,64.98
2018-01-01T12:30:25.962Z,64.87
2018-01-01T12:31:25.904Z,66.11
2018-01-01T12:32:25.765Z,65.81
2018-01-01T12:33:25.926Z,65.58
2018-01-01T12:34:26.005Z,65.85
2018-01-01T12:35:25.478Z,64.69
2018-01-01T12:36:25.594Z,63.67
2018-01-01T12:37:25.758Z,62.69
2018-01-01T12:38:25.830Z,64.35
2018-01-01T12:39:25.013Z,64.13
2018-01-01T12:40:25.146Z,63.64
2018-01-01T12:41:25.411Z,65.23
2018-01-01T12:42:25.471Z,63.91
2018-01-01T12:43:25.576Z,65.18
2018-01-01T12:44:25.542Z,64.91
2018-01-01T12:45:25.505Z,65.18
2018-01-01T12:46:25.780Z,64.78
2018-01-01T12:47:24.867Z,64.96
2018-01-01T12:48:24.901Z,65.35
2018-01-01T12:49:24.936Z,65.25
2018-01-01T12:50:24.975Z,64.78
2018-01-01T12:51:24.957Z,64.76
2018-01-01T12:52:25.121Z,64.85
2018-01-01T12:53:25.212Z,64.98
2018-01-01T12:54:25.137Z,65.2
2018-01-01T12:55:25.246Z,65.08
2018-01-01T12:56:25.113Z,64.56
2018-01-01T12:57:25.242Z,65.43
2018-01-01T12:58:25.299Z,64.51
2018-01-01T12:59:25.387Z,64.03
2018-01-01T13:00:25.264Z,65.16
2018-01-01T13:01:25.359Z,64.31
2018-01-01T13:02:25.224Z,64.96
2018-01-01T13:03:25.344Z,65.13
2018-01-01T13:04:25.193Z,64.67
2018-01-01T13:05:25.371Z,63.77